Time;durP1;ratioP1;P1;durP2;ratioP2;P2;SDS_P1;SDS_P2;PMS_P1;PMS_P2;Temp;Humidity;BMP_temperature;BMP_pressure;BME280_temperature;BME280_humidity;BME280_pressure;Samples;Min_cycle;Max_cycle;Signal;HPM_P1;HPM_P2
2022/06/30 00:00:03;;;;;;;16.70;9.82;;;;;;;15.19;100.00;101230.38;5051461;28;20032;-74
2022/06/30 00:02:28;;;;;;;12.57;8.65;;;;;;;15.20;100.00;101234.72;5051690;28;20070;-75
2022/06/30 00:04:53;;;;;;;13.60;8.35;;;;;;;15.19;100.00;101231.19;5051335;28;20405;-75
2022/06/30 00:07:19;;;;;;;16.75;9.05;;;;;;;15.20;100.00;101222.16;5051822;28;20463;-75
2022/06/30 00:09:44;;;;;;;14.52;9.98;;;;;;;15.21;100.00;101226.53;5049839;28;20029;-75
2022/06/30 00:12:10;;;;;;;13.75;8.35;;;;;;;15.16;100.00;101218.94;5051129;28;20036;-75
2022/06/30 00:14:35;;;;;;;13.93;8.50;;;;;;;15.09;100.00;101212.56;5051451;28;20392;-75
2022/06/30 00:17:01;;;;;;;14.95;9.75;;;;;;;15.06;100.00;101212.03;5051375;28;20021;-75
2022/06/30 00:19:26;;;;;;;14.05;10.68;;;;;;;15.00;100.00;101213.50;5049862;28;20127;-76
2022/06/30 00:21:51;;;;;;;18.98;10.88;;;;;;;14.94;100.00;101206.97;5050587;28;20136;-75
2022/06/30 00:24:17;;;;;;;12.02;8.90;;;;;;;14.88;100.00;101209.44;5051346;28;20068;-75
2022/06/30 00:26:42;;;;;;;13.32;9.73;;;;;;;14.84;100.00;101205.38;5051114;28;20040;-75
2022/06/30 00:29:08;;;;;;;14.77;11.50;;;;;;;14.79;100.00;101200.50;5051426;28;20060;-76
2022/06/30 00:31:33;;;;;;;15.85;10.02;;;;;;;14.72;100.00;101199.44;5051776;28;20040;-75
2022/06/30 00:33:58;;;;;;;15.32;9.40;;;;;;;14.68;100.00;101203.47;5049873;28;20032;-76
2022/06/30 00:36:24;;;;;;;20.35;11.85;;;;;;;14.66;100.00;101197.41;5050880;28;20130;-75
2022/06/30 00:38:49;;;;;;;17.35;12.20;;;;;;;14.64;100.00;101197.56;5049772;28;20055;-76
2022/06/30 00:41:14;;;;;;;13.75;9.65;;;;;;;14.61;100.00;101196.06;5051069;28;20461;-75
2022/06/30 00:43:45;;;;;;;15.80;9.77;;;;;;;14.60;100.00;101196.16;5049494;28;20033;-75
2022/06/30 00:46:10;;;;;;;15.10;10.63;;;;;;;14.57;100.00;101199.16;5050962;28;20188;-76
2022/06/30 00:48:36;;;;;;;15.70;11.73;;;;;;;14.54;100.00;101194.97;5050543;28;20536;-76
2022/06/30 00:51:06;;;;;;;14.82;9.48;;;;;;;14.53;100.00;101190.59;5050854;28;20035;-76
2022/06/30 00:53:37;;;;;;;18.75;11.38;;;;;;;14.52;100.00;101188.06;5051202;28;20349;-76
2022/06/30 00:56:04;;;;;;;15.32;10.63;;;;;;;14.50;100.00;101187.41;5051107;28;20029;-76
2022/06/30 00:58:33;;;;;;;23.08;13.52;;;;;;;14.50;100.00;101179.38;5049995;28;20384;-77
2022/06/30 01:00:58;;;;;;;14.23;11.88;;;;;;;14.49;100.00;101199.94;5049693;28;20033;-76
2022/06/30 01:03:24;;;;;;;22.60;16.38;;;;;;;14.53;100.00;101219.22;5050772;28;20386;-77
2022/06/30 01:05:51;;;;;;;19.40;16.25;;;;;;;14.60;100.00;101223.78;5050754;28;20476;-76
2022/06/30 01:08:18;;;;;;;26.63;16.27;;;;;;;14.73;100.00;101214.53;5050723;28;20091;-76
2022/06/30 01:13:28;;;;;;;24.63;15.05;;;;;;;15.09;100.00;101225.13;5051135;28;20060;-76
2022/06/30 01:15:53;;;;;;;23.48;15.65;;;;;;;15.25;100.00;101216.31;5050560;28;20037;-77
2022/06/30 01:18:19;;;;;;;19.25;12.13;;;;;;;15.51;100.00;101230.50;5050746;28;20033;-76
2022/06/30 01:20:44;;;;;;;14.13;11.35;;;;;;;15.70;100.00;101225.88;5050526;28;20036;-76
2022/06/30 01:23:10;;;;;;;14.43;10.20;;;;;;;15.83;100.00;101228.94;5050636;28;20132;-76
2022/06/30 01:25:35;;;;;;;18.55;11.13;;;;;;;15.96;100.00;101241.03;5056952;28;20044;-77
2022/06/30 01:28:01;;;;;;;13.80;9.95;;;;;;;16.01;100.00;101228.00;5052949;28;20438;-76
2022/06/30 01:30:26;;;;;;;13.98;8.52;;;;;;;15.98;100.00;101218.41;5050458;28;20033;-76
2022/06/30 01:32:52;;;;;;;16.42;9.10;;;;;;;15.96;100.00;101235.69;5050712;28;20089;-76
2022/06/30 01:35:18;;;;;;;17.52;9.32;;;;;;;15.94;100.00;101243.06;5054036;28;20425;-76
2022/06/30 01:37:54;;;;;;;17.15;8.80;;;;;;;15.90;100.00;101233.66;5054267;28;20426;-76
2022/06/30 01:40:21;;;;;;;12.50;8.38;;;;;;;15.85;100.00;101218.91;5053687;28;20064;-76
2022/06/30 01:42:47;;;;;;;18.35;9.65;;;;;;;15.79;100.00;101238.31;5054409;28;20049;-76
2022/06/30 01:45:13;;;;;;;14.85;8.02;;;;;;;15.76;100.00;101241.31;5054481;28;20039;-76
2022/06/30 01:47:39;;;;;;;13.23;7.70;;;;;;;15.75;100.00;101239.66;5054226;28;20033;-77
2022/06/30 01:50:07;;;;;;;14.75;8.45;;;;;;;15.73;100.00;101222.84;5053990;28;20103;-76
2022/06/30 01:52:33;;;;;;;16.95;7.85;;;;;;;15.68;100.00;101222.53;5053850;28;20067;-76
2022/06/30 01:54:58;;;;;;;13.20;7.80;;;;;;;15.63;100.00;101251.66;5053635;28;20036;-77
2022/06/30 01:57:23;;;;;;;11.45;7.80;;;;;;;15.61;100.00;101240.25;5053712;28;20061;-77
2022/06/30 01:59:49;;;;;;;10.45;7.43;;;;;;;15.58;100.00;101228.00;5053681;28;20087;-77
2022/06/30 02:02:14;;;;;;;13.00;7.63;;;;;;;15.54;100.00;101225.81;5053907;28;20033;-76
2022/06/30 02:04:50;;;;;;;11.70;6.93;;;;;;;15.49;100.00;101243.22;5053779;28;20094;-76
2022/06/30 02:07:16;;;;;;;11.85;6.25;;;;;;;15.48;100.00;101246.94;5054028;28;20044;-75
2022/06/30 02:09:42;;;;;;;10.90;6.00;;;;;;;15.45;100.00;101225.81;5053213;28;20334;-76
2022/06/30 02:14:52;;;;;;;10.40;5.35;;;;;;;15.36;100.00;101237.50;5053228;28;20040;-75
2022/06/30 02:17:17;;;;;;;8.43;4.43;;;;;;;15.34;100.00;101218.88;5053410;28;20029;-75
2022/06/30 02:19:43;;;;;;;11.05;4.72;;;;;;;15.31;100.00;101216.50;5051702;28;20465;-75
2022/06/30 02:22:08;;;;;;;9.48;4.93;;;;;;;15.31;100.00;101226.41;5053381;28;20036;-75
2022/06/30 02:24:34;;;;;;;5.25;4.07;;;;;;;15.34;100.00;101226.06;5053195;28;20444;-75
2022/06/30 02:27:00;;;;;;;5.85;3.90;;;;;;;15.35;100.00;101222.41;5052916;28;20090;-75
2022/06/30 02:29:25;;;;;;;12.60;4.95;;;;;;;15.33;100.00;101219.88;5053350;28;20056;-76
2022/06/30 02:31:50;;;;;;;6.68;3.90;;;;;;;15.26;100.00;101228.75;5053150;28;20098;-75
2022/06/30 02:34:16;;;;;;;9.50;4.30;;;;;;;15.22;100.00;101222.00;5052123;28;20033;-75
2022/06/30 02:36:41;;;;;;;8.02;3.63;;;;;;;15.16;100.00;101221.63;5053350;28;20033;-76
2022/06/30 02:39:06;;;;;;;9.27;3.88;;;;;;;15.14;100.00;101223.66;5052586;28;20156;-75
2022/06/30 02:41:32;;;;;;;8.93;3.92;;;;;;;15.13;100.00;101234.53;5052746;28;20055;-75
2022/06/30 02:43:58;;;;;;;7.75;3.90;;;;;;;15.11;100.00;101212.41;5052707;28;20381;-76
2022/06/30 02:46:24;;;;;;;9.55;3.95;;;;;;;15.10;100.00;101216.91;5051875;28;20049;-75
2022/06/30 02:48:49;;;;;;;8.05;3.42;;;;;;;15.08;100.00;101220.78;5052802;28;20040;-76
2022/06/30 02:51:15;;;;;;;6.38;3.20;;;;;;;15.04;100.00;101230.13;5052805;28;20032;-76
2022/06/30 02:53:40;;;;;;;5.93;2.75;;;;;;;15.02;100.00;101216.03;5052427;28;20036;-76
2022/06/30 02:56:05;;;;;;;6.78;2.90;;;;;;;14.98;100.00;101213.66;5052420;28;20115;-75
2022/06/30 02:58:31;;;;;;;7.53;2.80;;;;;;;14.90;100.00;101212.78;5052197;28;20531;-75
2022/06/30 03:00:56;;;;;;;9.38;2.90;;;;;;;14.87;100.00;101221.13;5051944;28;20499;-75
2022/06/30 03:03:21;;;;;;;5.97;2.80;;;;;;;14.84;100.00;101219.63;5052124;28;20064;-77
2022/06/30 03:05:47;;;;;;;7.72;2.90;;;;;;;14.84;100.00;101216.94;5052443;28;20074;-77
2022/06/30 03:08:12;;;;;;;4.68;2.42;;;;;;;14.81;100.00;101207.38;5052382;28;20064;-76
2022/06/30 03:10:37;;;;;;;5.95;2.75;;;;;;;14.77;100.00;101211.38;5052708;28;20410;-76
2022/06/30 03:13:03;;;;;;;5.75;2.63;;;;;;;14.74;100.00;101209.00;5052252;28;20098;-76
2022/06/30 03:15:28;;;;;;;3.80;2.35;;;;;;;14.74;100.00;101216.22;5052259;28;20047;-76
2022/06/30 03:17:56;;;;;;;6.38;2.67;;;;;;;14.71;100.00;101203.97;5051776;28;20467;-76
2022/06/30 03:20:22;;;;;;;6.47;2.65;;;;;;;14.71;100.00;101214.69;5052042;28;20039;-76
2022/06/30 03:22:47;;;;;;;9.13;2.78;;;;;;;14.71;100.00;101214.69;5051871;28;20112;-76
2022/06/30 03:25:13;;;;;;;7.95;3.05;;;;;;;14.69;100.00;101208.66;5051574;28;20040;-76
2022/06/30 03:27:38;;;;;;;4.28;2.22;;;;;;;14.69;100.00;101200.63;5052277;28;20416;-75
2022/06/30 03:30:04;;;;;;;5.25;2.60;;;;;;;14.69;100.00;101200.63;5051955;28;20044;-76
2022/06/30 03:32:30;;;;;;;5.75;2.88;;;;;;;14.68;100.00;101196.25;5051615;28;20028;-76
2022/06/30 03:34:55;;;;;;;4.32;2.33;;;;;;;14.68;100.00;101193.56;5051763;28;20033;-74
2022/06/30 03:37:21;;;;;;;6.30;2.60;;;;;;;14.66;100.00;101189.38;5051350;28;20107;-75
2022/06/30 03:39:46;;;;;;;6.13;2.42;;;;;;;14.64;100.00;101186.84;5051579;28;20398;-75
2022/06/30 03:42:11;;;;;;;6.15;2.60;;;;;;;14.60;100.00;101186.28;5052104;28;20059;-74
2022/06/30 03:44:37;;;;;;;5.55;2.50;;;;;;;14.58;100.00;101184.75;5051798;28;20033;-75
2022/06/30 03:47:02;;;;;;;5.28;2.30;;;;;;;14.57;100.00;101194.66;5051365;28;20064;-75
2022/06/30 03:49:28;;;;;;;8.30;2.20;;;;;;;14.55;100.00;101199.31;5051467;28;20421;-75
2022/06/30 03:51:53;;;;;;;4.57;2.15;;;;;;;14.53;100.00;101200.47;5051377;28;20041;-75
2022/06/30 03:54:21;;;;;;;4.90;2.47;;;;;;;14.50;100.00;101198.09;5051147;28;20139;-75
2022/06/30 03:56:47;;;;;;;9.80;2.40;;;;;;;14.52;100.00;101209.50;5050841;28;20127;-75
2022/06/30 03:59:12;;;;;;;5.30;2.50;;;;;;;14.51;100.00;101206.00;5051046;28;20116;-75
2022/06/30 04:01:38;;;;;;;5.50;2.70;;;;;;;14.54;100.00;101218.19;5050100;28;20061;-75
2022/06/30 04:04:03;;;;;;;3.80;2.75;;;;;;;14.56;100.00;101213.53;5050748;28;20116;-75
2022/06/30 04:06:28;;;;;;;4.80;3.15;;;;;;;14.58;100.00;101203.50;5051156;28;20381;-75
2022/06/30 04:08:54;;;;;;;8.02;3.28;;;;;;;14.58;100.00;101200.84;5051094;28;20360;-75
2022/06/30 04:11:19;;;;;;;7.22;3.45;;;;;;;14.60;100.00;101196.16;5051075;28;20078;-74
2022/06/30 04:13:44;;;;;;;7.22;3.33;;;;;;;14.62;100.00;101205.75;5051048;28;20444;-75
2022/06/30 04:16:10;;;;;;;9.25;3.60;;;;;;;14.68;100.00;101239.09;5050727;28;20044;-75
2022/06/30 04:18:35;;;;;;;7.45;3.83;;;;;;;14.72;100.00;101259.22;5049629;28;20041;-74
2022/06/30 04:21:01;;;;;;;7.78;3.83;;;;;;;14.77;100.00;101230.13;5049626;28;20064;-75
2022/06/30 04:23:26;;;;;;;12.18;4.07;;;;;;;14.83;100.00;101233.19;5051125;28;20024;-76
2022/06/30 04:25:51;;;;;;;9.20;4.25;;;;;;;14.88;100.00;101253.13;5050890;28;20430;-75
2022/06/30 04:28:17;;;;;;;7.13;4.43;;;;;;;14.94;100.00;101246.31;5050984;28;20029;-75
2022/06/30 04:33:26;;;;;;;11.05;4.57;;;;;;;15.04;100.00;101247.03;5051256;28;20048;-74
2022/06/30 04:35:51;;;;;;;14.57;4.60;;;;;;;15.09;100.00;101243.88;5050867;28;20084;-74
2022/06/30 04:38:17;;;;;;;12.73;4.40;;;;;;;15.14;100.00;101253.13;5050917;28;20033;-74
2022/06/30 04:43:26;;;;;;;10.38;3.38;;;;;;;15.27;100.00;101270.59;5050537;28;20373;-75
2022/06/30 04:45:51;;;;;;;7.72;2.83;;;;;;;15.31;100.00;101262.09;5051593;28;20029;-74
2022/06/30 04:48:16;;;;;;;10.25;2.90;;;;;;;15.36;100.00;101255.41;5050145;28;20033;-75
2022/06/30 04:50:42;;;;;;;8.80;2.65;;;;;;;15.45;100.00;101271.38;5051760;28;20052;-74
2022/06/30 04:53:08;;;;;;;4.88;2.47;;;;;;;15.54;100.00;101272.25;5051597;28;20036;-73
2022/06/30 04:55:34;;;;;;;12.77;2.80;;;;;;;15.65;100.00;101281.84;5050275;28;20033;-74
2022/06/30 04:57:59;;;;;;;9.23;2.40;;;;;;;15.78;100.00;101289.47;5051424;28;20158;-75
2022/06/30 05:00:25;;;;;;;7.85;2.58;;;;;;;15.92;100.00;101291.53;5051752;28;20464;-74
2022/06/30 05:02:50;;;;;;;7.82;2.35;;;;;;;16.12;100.00;101292.09;5051420;28;20078;-75
2022/06/30 05:05:15;;;;;;;7.63;2.00;;;;;;;16.36;100.00;101283.25;5051506;28;20052;-74
2022/06/30 05:07:41;;;;;;;8.32;2.60;;;;;;;16.54;100.00;101288.47;5051771;28;20455;-74
2022/06/30 05:10:07;;;;;;;7.65;2.13;;;;;;;16.66;99.71;101280.03;5055136;28;20033;-74
2022/06/30 05:12:32;;;;;;;6.03;2.15;;;;;;;16.76;98.71;101275.34;5055166;28;20035;-75
2022/06/30 05:14:59;;;;;;;8.43;2.53;;;;;;;16.81;97.50;101281.06;5055140;28;20108;-74
2022/06/30 05:17:24;;;;;;;3.15;1.45;;;;;;;16.75;95.68;101284.44;5054353;28;20037;-75
2022/06/30 05:19:50;;;;;;;4.68;2.17;;;;;;;16.65;95.43;101295.34;5055082;28;20382;-75
2022/06/30 05:22:15;;;;;;;6.55;2.45;;;;;;;16.55;95.44;101300.03;5054647;28;20033;-75
2022/06/30 05:27:24;;;;;;;7.60;1.77;;;;;;;16.49;94.05;101301.53;5055305;28;20032;-77
2022/06/30 05:29:49;;;;;;;6.88;2.47;;;;;;;16.46;94.26;101293.81;5054725;28;20025;-77
2022/06/30 05:32:15;;;;;;;8.52;2.05;;;;;;;16.39;94.72;101293.66;5054368;28;20060;-78
2022/06/30 05:34:40;;;;;;;8.32;1.88;;;;;;;16.30;95.60;101288.41;5053058;28;20124;-77
2022/06/30 05:37:05;;;;;;;8.55;2.20;;;;;;;16.19;96.25;101285.03;5054173;28;20032;-79
2022/06/30 05:39:32;;;;;;;6.95;1.80;;;;;;;16.13;96.86;101279.50;5054502;28;20448;-77
2022/06/30 05:41:59;;;;;;;4.57;1.70;;;;;;;16.06;96.51;101279.31;5053835;28;20106;-76
2022/06/30 05:44:25;;;;;;;5.07;1.98;;;;;;;16.06;97.12;101283.84;5054224;28;20037;-75
2022/06/30 05:46:51;;;;;;;5.93;1.95;;;;;;;16.07;96.37;101285.53;5054131;28;20029;-75
2022/06/30 05:49:16;;;;;;;5.68;1.75;;;;;;;16.12;96.09;101284.06;5053835;28;20056;-75
2022/06/30 05:51:41;;;;;;;8.40;1.63;;;;;;;16.19;96.13;101276.16;5054377;28;20426;-76
2022/06/30 05:54:07;;;;;;;7.32;1.85;;;;;;;16.26;95.34;101270.97;5054084;28;20484;-76
2022/06/30 05:56:32;;;;;;;7.47;1.65;;;;;;;16.35;93.53;101261.94;5054130;28;20090;-77
2022/06/30 05:58:57;;;;;;;6.03;1.80;;;;;;;16.46;93.06;101279.56;5052640;28;20173;-75
2022/06/30 06:01:23;;;;;;;7.40;1.70;;;;;;;16.53;91.55;101267.97;5053766;28;20048;-74
2022/06/30 06:03:48;;;;;;;8.07;1.80;;;;;;;16.64;91.25;101269.47;5054020;28;20132;-77
2022/06/30 06:06:13;;;;;;;6.20;1.70;;;;;;;16.78;91.84;101272.47;5052892;28;20029;-76
2022/06/30 06:08:40;;;;;;;7.45;1.70;;;;;;;16.91;90.73;101270.16;5053828;28;20035;-78
2022/06/30 06:11:05;;;;;;;7.50;1.52;;;;;;;17.04;88.62;101275.84;5052219;28;20478;-78
2022/06/30 06:13:31;;;;;;;6.35;1.63;;;;;;;17.19;89.13;101283.22;5053764;28;20033;-78
2022/06/30 06:15:56;;;;;;;7.35;1.80;;;;;;;17.33;88.63;101274.44;5052460;28;20492;-77
2022/06/30 06:18:21;;;;;;;8.18;2.25;;;;;;;17.48;87.18;101282.63;5052225;28;20036;-78
2022/06/30 06:20:47;;;;;;;6.63;1.42;;;;;;;17.58;84.24;101285.91;5053737;28;20115;-77
2022/06/30 06:23:12;;;;;;;5.10;1.55;;;;;;;17.64;83.78;101284.41;5053934;28;20404;-77
2022/06/30 06:25:38;;;;;;;4.78;1.70;;;;;;;17.67;83.17;101285.91;5053769;28;20040;-78
2022/06/30 06:30:47;;;;;;;8.48;2.00;;;;;;;17.98;82.23;101278.69;5053767;28;20102;-78
2022/06/30 06:33:12;;;;;;;6.80;1.52;;;;;;;18.10;81.92;101278.31;5053383;28;20052;-77
2022/06/30 06:35:38;;;;;;;5.00;1.58;;;;;;;18.27;83.22;101282.56;5053326;28;20071;-76
2022/06/30 06:38:03;;;;;;;5.72;1.50;;;;;;;18.52;79.87;101284.25;5051958;28;20128;-78
2022/06/30 06:40:29;;;;;;;5.38;1.63;;;;;;;18.82;78.97;101277.91;5053296;28;20091;-76
2022/06/30 06:42:55;;;;;;;6.32;1.70;;;;;;;19.17;77.37;101282.81;5053432;28;20053;-76
2022/06/30 06:45:20;;;;;;;5.85;1.60;;;;;;;19.49;75.51;101283.47;5051708;28;20079;-75
2022/06/30 06:47:47;;;;;;;4.63;1.42;;;;;;;19.91;74.06;101292.72;5053473;28;20029;-76
2022/06/30 06:50:12;;;;;;;5.18;1.90;;;;;;;20.35;71.14;101288.22;5053240;28;20086;-75
2022/06/30 06:52:37;;;;;;;4.63;1.40;;;;;;;20.47;68.16;101280.41;5051864;28;20124;-76
2022/06/30 06:55:04;;;;;;;3.90;1.65;;;;;;;20.33;66.68;101291.13;5057391;28;20044;-75
2022/06/30 06:57:37;;;;;;;4.13;1.35;;;;;;;20.24;67.42;101295.81;5052168;28;20040;-75
2022/06/30 07:00:12;;;;;;;3.58;1.58;;;;;;;20.16;68.05;101304.03;5053048;28;20040;-75
2022/06/30 07:02:38;;;;;;;6.75;1.50;;;;;;;20.29;68.92;101299.78;5051535;28;20486;-78
2022/06/30 07:05:05;;;;;;;3.30;1.42;;;;;;;20.50;67.89;101293.56;5052643;28;20067;-75
2022/06/30 07:07:30;;;;;;;5.32;1.38;;;;;;;20.67;64.48;101305.78;5053106;28;20029;-76
2022/06/30 07:09:55;;;;;;;2.90;1.30;;;;;;;20.81;66.07;101314.03;5051804;28;20187;-76
2022/06/30 07:12:21;;;;;;;3.42;1.40;;;;;;;20.80;62.17;101317.78;5053000;28;20079;-76
2022/06/30 07:14:46;;;;;;;5.35;1.40;;;;;;;20.65;62.94;101315.94;5053185;28;20029;-77
2022/06/30 07:17:11;;;;;;;1.88;1.10;;;;;;;20.49;63.88;101311.63;5052858;28;20029;-77
2022/06/30 07:19:36;;;;;;;3.67;1.38;;;;;;;20.49;62.25;101319.75;5053736;28;20036;-77
2022/06/30 07:22:02;;;;;;;2.58;1.33;;;;;;;20.56;64.46;101325.22;5053907;28;20061;-76
2022/06/30 07:24:27;;;;;;;7.88;1.67;;;;;;;20.58;64.81;101323.16;5052784;28;20033;-76
2022/06/30 07:26:53;;;;;;;5.80;1.58;;;;;;;20.50;63.53;101326.00;5052881;28;20037;-76
2022/06/30 07:29:18;;;;;;;5.97;1.67;;;;;;;20.36;65.02;101315.06;5052689;28;20029;-76
2022/06/30 07:31:43;;;;;;;6.28;1.65;;;;;;;20.29;67.38;101319.56;5052426;28;20045;-76
2022/06/30 07:34:09;;;;;;;7.13;2.33;;;;;;;20.34;67.53;101335.19;5052972;28;20025;-77
2022/06/30 07:36:36;;;;;;;5.50;1.75;;;;;;;20.42;67.62;101332.34;5053180;28;20033;-76
2022/06/30 07:39:02;;;;;;;4.05;1.35;;;;;;;20.52;67.03;101332.88;5052683;28;20021;-76
2022/06/30 07:41:28;;;;;;;5.18;1.50;;;;;;;20.67;67.03;101335.53;5052503;28;20060;-76
2022/06/30 07:43:53;;;;;;;6.53;1.70;;;;;;;20.67;66.01;101337.41;5052431;28;20098;-76
2022/06/30 07:46:19;;;;;;;8.18;1.60;;;;;;;20.65;65.69;101344.88;5052477;28;20040;-77
2022/06/30 07:48:45;;;;;;;5.35;1.63;;;;;;;20.72;66.20;101345.75;5052738;28;20033;-76
2022/06/30 07:51:11;;;;;;;4.47;1.40;;;;;;;20.74;64.70;101343.72;5053183;28;20028;-77
2022/06/30 07:53:36;;;;;;;7.93;1.70;;;;;;;20.71;64.17;101342.22;5053061;28;20476;-77
2022/06/30 07:56:02;;;;;;;5.45;1.50;;;;;;;20.58;64.91;101356.41;5051984;28;20028;-77
2022/06/30 07:58:27;;;;;;;5.65;1.50;;;;;;;20.62;66.68;101359.59;5051116;28;20025;-76
2022/06/30 08:00:53;;;;;;;5.32;1.55;;;;;;;20.75;64.85;101359.75;5052359;28;20326;-77
2022/06/30 08:03:18;;;;;;;4.50;1.48;;;;;;;20.88;63.52;101353.59;5052406;28;20066;-76
2022/06/30 08:05:43;;;;;;;3.22;1.38;;;;;;;21.09;63.85;101358.19;5052363;28;20037;-76
2022/06/30 08:08:09;;;;;;;8.27;1.67;;;;;;;21.20;62.45;101356.78;5052448;28;20033;-76
2022/06/30 08:10:34;;;;;;;7.15;1.40;;;;;;;21.26;62.08;101355.16;5052950;28;20330;-76
2022/06/30 08:12:59;;;;;;;6.78;1.73;;;;;;;21.40;62.15;101354.22;5052443;28;20071;-77
2022/06/30 08:15:25;;;;;;;5.45;1.45;;;;;;;21.51;58.60;101369.06;5052638;28;20457;-77
2022/06/30 08:17:50;;;;;;;4.88;1.20;;;;;;;21.45;57.42;101361.72;5052275;28;20072;-77
2022/06/30 08:20:16;;;;;;;4.05;1.15;;;;;;;21.50;58.73;101356.59;5051982;28;20037;-78
2022/06/30 08:22:41;;;;;;;6.00;1.23;;;;;;;21.59;59.18;101363.53;5051890;28;20033;-78
2022/06/30 08:25:07;;;;;;;3.85;1.38;;;;;;;21.85;57.90;101367.41;5051736;28;20107;-77
2022/06/30 08:27:32;;;;;;;3.72;1.25;;;;;;;22.06;57.20;101366.44;5052550;28;20462;-77
2022/06/30 08:29:58;;;;;;;6.35;1.33;;;;;;;22.31;57.24;101361.34;5052299;28;20454;-77
2022/06/30 08:32:23;;;;;;;3.17;1.38;;;;;;;22.38;54.76;101361.38;5052528;28;20104;-77
2022/06/30 08:34:49;;;;;;;3.95;1.33;;;;;;;22.42;55.13;101367.22;5051925;28;20051;-77
2022/06/30 08:37:14;;;;;;;4.00;1.65;;;;;;;22.21;53.72;101368.16;5052016;28;20044;-78
2022/06/30 08:42:25;;;;;;;4.00;1.25;;;;;;;22.21;54.36;101350.03;5051757;28;20417;-76
2022/06/30 08:47:37;;;;;;;2.70;1.30;;;;;;;22.73;54.78;101355.78;5055425;28;20052;-78
2022/06/30 08:50:03;;;;;;;2.70;1.30;;;;;;;23.35;52.09;101359.16;5055392;28;20108;-77
2022/06/30 08:52:30;;;;;;;2.45;1.42;;;;;;;23.97;50.45;101350.63;5055053;28;20028;-77
2022/06/30 08:54:58;;;;;;;3.75;1.13;;;;;;;24.54;50.26;101353.47;5055001;28;20033;-77
2022/06/30 08:57:25;;;;;;;3.22;1.27;;;;;;;24.82;47.58;101358.47;5054814;28;20113;-77
2022/06/30 08:59:52;;;;;;;3.88;1.77;;;;;;;25.58;45.92;101366.59;5054842;28;20132;-77
2022/06/30 09:02:18;;;;;;;3.83;1.35;;;;;;;26.12;45.32;101360.53;5055265;28;20044;-77
2022/06/30 09:04:44;;;;;;;5.07;1.40;;;;;;;26.48;43.94;101356.88;5054683;28;20032;-77
2022/06/30 09:07:11;;;;;;;2.83;1.23;;;;;;;26.83;43.98;101367.06;5054716;28;20032;-76
2022/06/30 09:09:36;;;;;;;3.25;1.30;;;;;;;27.41;43.71;101368.19;5055398;28;20029;-77
2022/06/30 09:12:02;;;;;;;3.97;1.20;;;;;;;27.60;41.35;101366.16;5055432;28;20111;-79
2022/06/30 09:14:38;;;;;;;4.55;1.50;;;;;;;28.01;40.27;101377.13;5055617;28;20063;-78
2022/06/30 09:17:06;;;;;;;4.13;1.52;;;;;;;28.67;38.57;101368.53;5055478;28;20021;-76
2022/06/30 09:19:33;;;;;;;3.53;1.50;;;;;;;29.02;38.84;101371.00;5055103;28;20468;-80
2022/06/30 09:22:14;;;;;;;2.90;1.58;;;;;;;29.51;36.99;101362.16;5055366;28;20103;-78
2022/06/30 09:24:40;;;;;;;3.42;1.38;;;;;;;29.45;37.11;101373.28;5055457;28;20037;-78
2022/06/30 09:27:19;;;;;;;3.72;1.48;;;;;;;29.01;37.51;101376.75;5055862;28;20080;-78
2022/06/30 09:30:04;;;;;;;2.97;1.48;;;;;;;29.11;37.28;101371.44;5055455;28;20032;-78
2022/06/30 09:32:48;;;;;;;2.65;1.50;;;;;;;29.01;37.04;101374.00;5055242;28;20040;-77
2022/06/30 09:35:15;;;;;;;5.18;1.52;;;;;;;28.88;37.85;101377.06;5054992;28;20041;-77
2022/06/30 09:37:40;;;;;;;3.75;1.20;;;;;;;28.59;37.70;101382.56;5054782;28;20033;-78
2022/06/30 09:40:07;;;;;;;7.35;1.60;;;;;;;28.36;37.74;101394.47;5054909;28;20029;-77
2022/06/30 09:42:44;;;;;;;5.40;1.52;;;;;;;28.55;38.89;101381.41;5053440;28;20442;-79
2022/06/30 09:45:13;;;;;;;3.38;1.38;;;;;;;29.09;38.51;101379.03;5053257;28;20036;-77
2022/06/30 09:47:58;;;;;;;3.33;1.30;;;;;;;29.51;37.12;101381.34;5053499;28;20111;-78
2022/06/30 09:50:25;;;;;;;4.70;1.65;;;;;;;29.80;36.51;101367.47;5053322;28;20060;-77
2022/06/30 09:53:11;;;;;;;5.07;1.52;;;;;;;30.00;37.42;101372.38;5053490;28;20365;-76
2022/06/30 09:55:47;;;;;;;3.45;1.30;;;;;;;30.06;36.98;101381.50;5053153;28;20029;-81
2022/06/30 09:58:34;;;;;;;4.55;1.70;;;;;;;30.28;35.12;101399.84;5053624;28;20112;-78
2022/06/30 10:01:00;;;;;;;5.38;1.77;;;;;;;30.63;35.50;101404.06;5053719;28;20457;-79
2022/06/30 10:03:26;;;;;;;3.35;1.30;;;;;;;30.70;36.90;101399.19;5053348;28;20041;-78
2022/06/30 10:06:18;;;;;;;9.13;1.70;;;;;;;30.72;36.31;101397.00;5053247;28;20384;-78
2022/06/30 10:08:44;;;;;;;4.40;1.50;;;;;;;30.96;34.73;101402.97;5049163;28;20083;-81
2022/06/30 10:11:11;;;;;;;4.43;1.83;;;;;;;30.76;35.47;101403.63;5053449;28;20025;-78
2022/06/30 10:13:39;;;;;;;3.63;1.60;;;;;;;30.29;35.25;101401.50;5053047;28;20101;-78
2022/06/30 10:16:06;;;;;;;5.70;1.45;;;;;;;29.99;36.45;101400.06;5053408;28;20107;-78
2022/06/30 10:18:41;;;;;;;4.88;1.98;;;;;;;30.44;37.39;101406.34;5053110;28;20063;-78
2022/06/30 10:21:08;;;;;;;7.25;1.80;;;;;;;30.33;35.38;101408.94;5053003;28;20453;-78
2022/06/30 10:23:34;;;;;;;4.40;1.42;;;;;;;30.42;36.61;101392.88;5053060;28;20033;-77
2022/06/30 10:26:00;;;;;;;3.17;1.15;;;;;;;30.31;36.08;101388.38;5052658;28;20527;-77
2022/06/30 10:28:30;;;;;;;4.38;1.58;;;;;;;30.29;35.03;101396.84;5052986;28;20029;-77
2022/06/30 10:31:14;;;;;;;3.53;1.15;;;;;;;30.23;35.45;101406.94;5052931;28;20187;-78
2022/06/30 10:34:15;;;;;;;6.13;1.50;;;;;;;30.01;35.76;101411.63;5052975;28;20061;-77
2022/06/30 10:36:50;;;;;;;4.60;1.50;;;;;;;29.73;35.64;101411.50;5052939;28;20028;-78
2022/06/30 10:39:24;;;;;;;2.45;1.20;;;;;;;29.39;35.74;101413.50;5052424;28;20449;-76
2022/06/30 10:41:50;;;;;;;3.25;1.40;;;;;;;28.56;38.00;101416.75;5009113;28;1268670;-76
2022/06/30 10:44:27;;;;;;;4.25;1.50;;;;;;;28.49;39.00;101411.41;5054295;28;20079;-76
2022/06/30 10:46:52;;;;;;;3.22;1.50;;;;;;;28.01;41.18;101412.69;5054019;28;20033;-77
2022/06/30 10:49:17;;;;;;;3.80;1.70;;;;;;;27.68;40.44;101424.22;5053880;28;20492;-77
2022/06/30 10:51:45;;;;;;;4.60;1.55;;;;;;;26.90;41.72;101421.56;5054013;28;20033;-77
2022/06/30 10:54:28;;;;;;;4.03;1.40;;;;;;;26.04;44.38;101414.31;5053677;28;20032;-77
2022/06/30 10:56:55;;;;;;;3.35;1.10;;;;;;;26.01;45.05;101414.78;5054110;28;20462;-77
2022/06/30 10:59:36;;;;;;;2.28;1.23;;;;;;;25.57;45.03;101407.69;5052979;28;20437;-77
2022/06/30 11:02:08;;;;;;;4.88;1.50;;;;;;;24.96;46.67;101419.09;5052751;28;20098;-77
2022/06/30 11:04:38;;;;;;;4.43;1.60;;;;;;;24.06;48.63;101419.97;5052867;28;20032;-76
2022/06/30 11:07:18;;;;;;;3.25;1.30;;;;;;;23.30;51.63;101420.53;5052248;28;20135;-76
2022/06/30 11:09:43;;;;;;;7.40;1.20;;;;;;;23.20;52.79;101415.56;5052945;28;20021;-81
2022/06/30 11:12:12;;;;;;;2.40;1.23;;;;;;;22.94;53.25;101424.47;5053109;28;20043;-78
2022/06/30 11:14:41;;;;;;;5.40;1.40;;;;;;;22.71;54.83;101425.69;5052309;28;20025;-74
2022/06/30 11:17:13;;;;;;;3.28;1.30;;;;;;;22.48;56.38;101431.47;5052321;28;20035;-75
2022/06/30 11:19:39;;;;;;;4.50;1.65;;;;;;;22.48;57.68;101437.72;5052865;28;20040;-76
2022/06/30 11:22:07;;;;;;;5.03;1.60;;;;;;;22.47;58.54;101422.50;5052738;28;20033;-73
2022/06/30 11:24:38;;;;;;;4.47;1.50;;;;;;;22.48;57.23;101418.75;5052744;28;20033;-74
2022/06/30 11:27:25;;;;;;;4.65;1.50;;;;;;;22.33;59.00;101412.66;5052184;28;20414;-74
2022/06/30 11:30:08;;;;;;;4.35;1.50;;;;;;;22.10;57.67;101404.81;5051575;28;20428;-74
2022/06/30 11:32:34;;;;;;;3.63;1.33;;;;;;;22.11;59.00;101401.91;5050688;28;20372;-75
2022/06/30 11:35:00;;;;;;;6.53;1.90;;;;;;;22.00;58.89;101397.06;5052104;28;20033;-74
2022/06/30 11:37:30;;;;;;;3.25;1.48;;;;;;;21.98;58.94;101397.25;5050445;28;20078;-75
2022/06/30 11:39:56;;;;;;;7.45;1.45;;;;;;;22.01;58.32;101398.75;5051951;28;20048;-75